Time;durP1;ratioP1;P1;durP2;ratioP2;P2;SDS_P1;SDS_P2;PMS_P1;PMS_P2;Temp;Humidity;BMP_temperature;BMP_pressure;BME280_temperature;BME280_humidity;BME280_pressure;Samples;Min_cycle;Max_cycle;Signal;HPM_P1;HPM_P2
2023/10/31 00:02:01;;;;;;;6.13;2.90;;;11.60;99.90;;;;;;5072669;28;20032;-79
2023/10/31 00:04:27;;;;;;;9.05;3.42;;;11.60;99.90;;;;;;5084610;28;20122;-79
2023/10/31 00:06:52;;;;;;;6.63;2.97;;;11.60;99.90;;;;;;5078778;28;20543;-79
2023/10/31 00:09:18;;;;;;;7.53;3.53;;;11.60;99.90;;;;;;5076092;28;20032;-79
2023/10/31 00:11:44;;;;;;;8.15;3.60;;;11.60;99.90;;;;;;5058584;28;20032;-79
2023/10/31 00:14:09;;;;;;;7.25;3.13;;;11.70;99.90;;;;;;5073601;28;20046;-79
2023/10/31 00:16:35;;;;;;;7.75;3.45;;;11.60;99.90;;;;;;5091707;28;20487;-79
2023/10/31 00:19:00;;;;;;;9.90;3.47;;;11.70;99.90;;;;;;5091931;28;20054;-79
2023/10/31 00:21:26;;;;;;;7.93;3.45;;;11.60;99.90;;;;;;5074835;28;20072;-79
2023/10/31 00:23:52;;;;;;;7.05;3.25;;;11.60;99.90;;;;;;5090923;28;20468;-80
2023/10/31 00:26:17;;;;;;;7.72;3.38;;;11.60;99.90;;;;;;5089864;28;20549;-80
2023/10/31 00:28:43;;;;;;;6.85;3.42;;;11.60;99.90;;;;;;5092403;28;20048;-80
2023/10/31 00:31:11;;;;;;;7.05;3.30;;;11.60;99.90;;;;;;5093094;28;20028;-79
2023/10/31 00:33:37;;;;;;;6.38;2.72;;;11.60;99.90;;;;;;5093413;28;20044;-79
2023/10/31 00:36:03;;;;;;;4.85;2.30;;;11.50;99.90;;;;;;5091371;28;21463;-79
2023/10/31 00:38:29;;;;;;;4.10;1.83;;;11.40;99.90;;;;;;5092733;28;20089;-80
2023/10/31 00:40:54;;;;;;;6.60;2.10;;;11.40;99.90;;;;;;5092565;28;20036;-80
2023/10/31 00:43:20;;;;;;;6.10;1.50;;;11.40;99.90;;;;;;5073802;28;20472;-80
2023/10/31 00:45:46;;;;;;;3.75;1.65;;;11.30;99.90;;;;;;5093129;28;20085;-80
2023/10/31 00:48:11;;;;;;;4.97;1.15;;;11.20;99.90;;;;;;5092546;28;20043;-80
2023/10/31 00:50:37;;;;;;;4.22;1.35;;;11.20;99.90;;;;;;5093122;28;20039;-80
2023/10/31 00:53:02;;;;;;;1.55;1.08;;;11.20;99.90;;;;;;5092527;28;20149;-80
2023/10/31 00:55:28;;;;;;;2.58;1.05;;;11.20;99.90;;;;;;5092654;28;20036;-80
2023/10/31 00:57:53;;;;;;;3.47;1.10;;;11.20;99.90;;;;;;5092282;28;20139;-81
2023/10/31 01:00:19;;;;;;;1.90;1.15;;;11.20;99.90;;;;;;5093218;28;20377;-81
2023/10/31 01:02:45;;;;;;;2.75;1.10;;;11.20;99.90;;;;;;5081948;28;20033;-80
2023/10/31 01:05:11;;;;;;;2.60;1.00;;;11.20;99.90;;;;;;5093038;28;20044;-81
2023/10/31 01:07:36;;;;;;;3.70;1.10;;;11.20;99.90;;;;;;5085796;28;20045;-81
2023/10/31 01:10:03;;;;;;;2.25;1.00;;;11.20;99.90;;;;;;5072888;28;20116;-81
2023/10/31 01:12:29;;;;;;;4.30;1.02;;;11.10;99.90;;;;;;5082011;28;20068;-81
2023/10/31 01:14:54;;;;;;;4.55;1.00;;;11.10;99.90;;;;;;5092954;28;20075;-81
2023/10/31 01:17:21;;;;;;;3.58;0.90;;;11.10;99.90;;;;;;5091923;28;20071;-80
2023/10/31 01:19:46;;;;;;;1.55;0.80;;;11.10;99.90;;;;;;5074926;28;20044;-80
2023/10/31 01:22:12;;;;;;;2.17;0.80;;;11.10;99.90;;;;;;5057338;28;20113;-80
2023/10/31 01:24:38;;;;;;;2.38;0.90;;;11.10;99.90;;;;;;5092372;28;20055;-79
2023/10/31 01:27:03;;;;;;;1.55;0.60;;;11.10;99.90;;;;;;5092849;28;20472;-80
2023/10/31 01:29:29;;;;;;;2.80;0.80;;;11.10;99.90;;;;;;5092204;28;20090;-79
2023/10/31 01:31:55;;;;;;;2.97;0.70;;;11.10;99.90;;;;;;5092865;28;20388;-81
2023/10/31 01:34:20;;;;;;;0.95;0.55;;;11.00;99.90;;;;;;5091329;28;20048;-81
2023/10/31 01:36:46;;;;;;;1.75;0.70;;;11.00;99.90;;;;;;5057946;28;20457;-81
2023/10/31 01:39:11;;;;;;;2.70;0.80;;;11.00;99.90;;;;;;5081183;28;20040;-79
2023/10/31 01:41:37;;;;;;;2.83;0.77;;;11.00;99.90;;;;;;5072667;28;20401;-80
2023/10/31 01:44:03;;;;;;;2.42;0.80;;;11.00;99.90;;;;;;5072537;28;20036;-80
2023/10/31 01:46:28;;;;;;;5.22;0.70;;;11.00;99.90;;;;;;5092603;28;20048;-80
2023/10/31 01:48:54;;;;;;;4.75;0.80;;;11.00;99.90;;;;;;5091876;28;20555;-80
2023/10/31 01:51:19;;;;;;;3.83;0.85;;;10.90;99.90;;;;;;5092606;28;20047;-80
2023/10/31 01:53:46;;;;;;;2.63;0.90;;;11.00;99.90;;;;;;5091973;28;20103;-80
2023/10/31 01:56:13;;;;;;;2.60;0.70;;;10.90;99.90;;;;;;5095527;28;20051;-80
2023/10/31 01:58:39;;;;;;;3.65;0.80;;;10.90;99.90;;;;;;5073963;28;20056;-80
2023/10/31 02:01:06;;;;;;;3.85;0.90;;;10.90;99.90;;;;;;5074905;28;20048;-80
2023/10/31 02:03:33;;;;;;;6.35;1.20;;;10.90;99.90;;;;;;5074840;28;20500;-80
2023/10/31 02:05:59;;;;;;;4.40;1.13;;;11.00;99.90;;;;;;5073005;28;20055;-80
2023/10/31 02:08:25;;;;;;;3.92;1.00;;;11.00;99.90;;;;;;5075743;28;20040;-79
2023/10/31 02:10:51;;;;;;;4.25;0.95;;;11.00;99.90;;;;;;5075177;28;20079;-79
2023/10/31 02:13:18;;;;;;;5.80;1.25;;;11.00;99.90;;;;;;5075718;28;20497;-78
2023/10/31 02:15:44;;;;;;;2.42;0.80;;;10.90;99.90;;;;;;5074265;28;20080;-79
2023/10/31 02:18:10;;;;;;;3.42;0.80;;;10.90;99.90;;;;;;5075435;28;20468;-79
2023/10/31 02:20:36;;;;;;;2.70;0.70;;;10.80;99.90;;;;;;5074998;28;20064;-78
2023/10/31 02:23:02;;;;;;;1.27;0.65;;;10.80;99.90;;;;;;5073964;28;20459;-78
2023/10/31 02:25:28;;;;;;;2.70;0.70;;;10.80;99.90;;;;;;5073915;28;20032;-78
2023/10/31 02:27:54;;;;;;;3.47;0.90;;;10.80;99.90;;;;;;5059315;28;20086;-79
2023/10/31 02:30:19;;;;;;;2.28;0.60;;;10.80;99.90;;;;;;5061794;28;20080;-77
2023/10/31 02:32:45;;;;;;;7.10;0.85;;;10.70;99.90;;;;;;5075393;28;20032;-78
2023/10/31 02:35:11;;;;;;;4.90;0.90;;;10.70;99.90;;;;;;5056266;28;20033;-78
2023/10/31 02:37:37;;;;;;;2.80;0.82;;;10.70;99.90;;;;;;5075254;28;20037;-78
2023/10/31 02:40:03;;;;;;;4.82;0.80;;;10.70;99.90;;;;;;5054536;28;20082;-78
2023/10/31 02:42:29;;;;;;;4.18;0.68;;;10.70;99.90;;;;;;5062241;28;20123;-78
2023/10/31 02:44:54;;;;;;;3.80;0.90;;;10.70;99.90;;;;;;5071177;28;20139;-77
2023/10/31 02:47:20;;;;;;;4.28;0.90;;;10.70;99.90;;;;;;5073010;28;20052;-77
2023/10/31 02:49:45;;;;;;;3.60;0.90;;;10.70;99.90;;;;;;5060201;28;20446;-78
2023/10/31 02:52:11;;;;;;;3.17;0.80;;;10.80;99.90;;;;;;5067450;28;20028;-78
2023/10/31 02:54:37;;;;;;;3.42;1.10;;;10.70;99.90;;;;;;5072246;28;20033;-78
2023/10/31 02:57:03;;;;;;;4.88;0.82;;;10.80;99.90;;;;;;5063976;28;20118;-78
2023/10/31 02:59:28;;;;;;;3.45;1.02;;;10.80;99.90;;;;;;5072411;28;20099;-78
2023/10/31 03:01:57;;;;;;;6.35;1.00;;;10.80;99.90;;;;;;5068381;28;20048;-78
2023/10/31 03:04:23;;;;;;;3.05;0.85;;;10.90;99.90;;;;;;5072838;28;20119;-79
2023/10/31 03:06:49;;;;;;;4.78;0.82;;;10.80;99.90;;;;;;5070367;28;20498;-79
2023/10/31 03:09:14;;;;;;;3.90;1.00;;;10.80;99.90;;;;;;5066121;28;20072;-79
2023/10/31 03:11:40;;;;;;;3.63;1.00;;;10.80;99.90;;;;;;5071379;28;20083;-78
2023/10/31 03:14:05;;;;;;;4.70;1.15;;;10.80;99.90;;;;;;5079168;28;20040;-78
2023/10/31 03:16:32;;;;;;;3.38;0.90;;;10.90;99.90;;;;;;5071036;28;20048;-78
2023/10/31 03:18:58;;;;;;;4.22;1.30;;;10.80;99.90;;;;;;5073220;28;20051;-78
2023/10/31 03:21:24;;;;;;;5.10;1.40;;;10.80;99.90;;;;;;5070279;28;20131;-79
2023/10/31 03:23:50;;;;;;;3.80;1.40;;;10.80;99.90;;;;;;5073075;28;20610;-78
2023/10/31 03:26:19;;;;;;;4.05;1.60;;;10.70;99.90;;;;;;5071224;28;20052;-78
2023/10/31 03:28:45;;;;;;;3.15;1.60;;;10.60;99.90;;;;;;5072657;28;20119;-78
2023/10/31 03:31:12;;;;;;;5.45;1.83;;;10.60;99.90;;;;;;5072023;28;20111;-78
2023/10/31 03:33:37;;;;;;;6.35;2.38;;;10.60;99.90;;;;;;5072150;28;20481;-78
2023/10/31 03:36:04;;;;;;;5.75;2.45;;;10.60;99.90;;;;;;5071434;28;20047;-79
2023/10/31 03:38:31;;;;;;;5.55;2.28;;;10.60;99.90;;;;;;5072902;28;20115;-79
2023/10/31 03:40:56;;;;;;;8.18;2.47;;;10.70;99.90;;;;;;5071144;28;20416;-79
2023/10/31 03:43:22;;;;;;;5.53;2.40;;;10.70;99.90;;;;;;5072931;28;20040;-79
2023/10/31 03:45:48;;;;;;;6.85;2.58;;;10.70;99.90;;;;;;5054551;28;20115;-79
2023/10/31 03:48:13;;;;;;;7.50;2.70;;;10.60;99.90;;;;;;5100382;28;20055;-79
2023/10/31 03:50:39;;;;;;;8.38;2.92;;;10.60;99.90;;;;;;5061419;28;20025;-79
2023/10/31 03:53:05;;;;;;;6.45;2.60;;;10.50;99.90;;;;;;5073883;28;20039;-79
2023/10/31 03:55:30;;;;;;;8.00;2.90;;;10.50;99.90;;;;;;5072193;28;20063;-79
2023/10/31 03:57:56;;;;;;;8.63;3.15;;;10.40;99.90;;;;;;5069359;28;20060;-79
2023/10/31 04:00:23;;;;;;;5.28;2.30;;;10.40;99.90;;;;;;5074762;28;20054;-79
2023/10/31 04:02:48;;;;;;;5.22;2.55;;;10.40;99.90;;;;;;5072436;28;20437;-78
2023/10/31 04:05:14;;;;;;;7.65;2.50;;;10.40;99.90;;;;;;5090205;28;20128;-79
2023/10/31 04:07:40;;;;;;;5.45;2.22;;;10.40;99.90;;;;;;5043053;28;20036;-79
2023/10/31 04:10:06;;;;;;;6.43;2.42;;;10.40;99.90;;;;;;5104361;28;20036;-79
2023/10/31 04:12:31;;;;;;;5.53;2.30;;;10.40;99.90;;;;;;5073147;28;20040;-79
2023/10/31 04:14:57;;;;;;;6.88;2.20;;;10.40;99.90;;;;;;5088549;28;20054;-79
2023/10/31 04:17:23;;;;;;;8.13;2.20;;;10.40;99.90;;;;;;5092243;28;20081;-79
2023/10/31 04:19:48;;;;;;;7.57;2.33;;;10.30;99.90;;;;;;5083850;28;20044;-80
2023/10/31 04:22:14;;;;;;;5.55;2.08;;;10.40;99.90;;;;;;5075519;28;20396;-79
2023/10/31 04:24:40;;;;;;;6.25;2.42;;;10.40;99.90;;;;;;5089580;28;20039;-80
2023/10/31 04:27:07;;;;;;;4.45;2.20;;;10.40;99.90;;;;;;5092855;28;20392;-80
2023/10/31 04:29:32;;;;;;;5.55;1.83;;;10.40;99.90;;;;;;5073950;28;20044;-79
2023/10/31 04:31:58;;;;;;;8.82;2.10;;;10.40;99.90;;;;;;5091438;28;20047;-79
2023/10/31 04:34:23;;;;;;;4.90;2.08;;;10.40;99.90;;;;;;5070546;28;20500;-80
2023/10/31 04:36:49;;;;;;;5.65;1.60;;;10.40;99.90;;;;;;5089110;28;20040;-80
2023/10/31 04:39:15;;;;;;;4.35;1.85;;;10.40;99.90;;;;;;5092821;28;20483;-80
2023/10/31 04:41:41;;;;;;;7.13;1.65;;;10.40;99.90;;;;;;5086708;28;20040;-80
2023/10/31 04:44:06;;;;;;;6.10;1.60;;;10.40;99.90;;;;;;5078557;28;20039;-80
2023/10/31 04:46:32;;;;;;;5.15;1.77;;;10.40;99.90;;;;;;5085234;28;20042;-80
2023/10/31 04:48:58;;;;;;;6.53;1.98;;;10.40;99.90;;;;;;5102158;28;20477;-80
2023/10/31 04:51:23;;;;;;;4.40;1.52;;;10.40;99.90;;;;;;5091046;28;20115;-79
2023/10/31 04:53:49;;;;;;;5.18;1.60;;;10.40;99.90;;;;;;5072506;28;20476;-80
2023/10/31 04:56:15;;;;;;;5.72;1.13;;;10.40;99.90;;;;;;5084864;28;20063;-79
2023/10/31 04:58:44;;;;;;;6.13;1.55;;;10.40;99.90;;;;;;5088395;28;20504;-79
2023/10/31 05:01:12;;;;;;;3.63;1.52;;;10.40;99.90;;;;;;5074956;28;20123;-79
2023/10/31 05:03:38;;;;;;;3.30;1.20;;;10.40;99.90;;;;;;5099887;28;20081;-79
2023/10/31 05:06:04;;;;;;;3.72;1.13;;;10.40;99.90;;;;;;5089709;28;20036;-79
2023/10/31 05:08:30;;;;;;;2.40;1.05;;;10.40;99.90;;;;;;5091958;28;20074;-79
2023/10/31 05:10:56;;;;;;;4.88;1.20;;;10.40;99.90;;;;;;5091157;28;20040;-79
2023/10/31 05:13:22;;;;;;;4.15;1.05;;;10.40;99.90;;;;;;5092217;28;20032;-79
2023/10/31 05:15:48;;;;;;;3.72;1.15;;;10.40;99.90;;;;;;5093586;28;20506;-79
2023/10/31 05:18:13;;;;;;;4.32;0.90;;;10.40;99.90;;;;;;5087755;28;20040;-79
2023/10/31 05:20:39;;;;;;;2.70;0.90;;;10.40;99.90;;;;;;5091966;28;20040;-79
2023/10/31 05:23:05;;;;;;;3.03;1.00;;;10.30;99.90;;;;;;5092111;28;20032;-79
2023/10/31 05:25:30;;;;;;;4.05;0.75;;;10.30;99.90;;;;;;5087047;28;20066;-79
2023/10/31 05:27:56;;;;;;;2.13;0.70;;;10.30;99.90;;;;;;5081685;28;20186;-79
2023/10/31 05:30:22;;;;;;;2.80;0.70;;;10.30;99.90;;;;;;5090959;28;20078;-78
2023/10/31 05:32:49;;;;;;;2.33;0.70;;;10.30;99.90;;;;;;5096771;28;20054;-78
2023/10/31 05:35:15;;;;;;;2.72;0.68;;;10.30;99.90;;;;;;5095169;28;20396;-79
2023/10/31 05:37:40;;;;;;;1.25;0.60;;;10.30;99.90;;;;;;5092737;28;20036;-79
2023/10/31 05:40:06;;;;;;;2.33;0.57;;;10.40;99.90;;;;;;5091147;28;20070;-79
2023/10/31 05:42:32;;;;;;;2.78;0.70;;;10.40;99.90;;;;;;5094557;28;20032;-79
2023/10/31 05:44:57;;;;;;;2.90;0.80;;;10.30;99.90;;;;;;5089323;28;20050;-78
2023/10/31 05:47:23;;;;;;;1.40;0.70;;;10.30;99.90;;;;;;5092935;28;20048;-79
2023/10/31 05:49:49;;;;;;;3.83;0.90;;;10.30;99.90;;;;;;5093688;28;20441;-79
2023/10/31 05:52:14;;;;;;;3.33;0.80;;;10.30;99.90;;;;;;5095834;28;20096;-78
2023/10/31 05:54:40;;;;;;;3.42;0.98;;;10.30;99.90;;;;;;5092746;28;20074;-79
2023/10/31 05:57:06;;;;;;;1.73;0.73;;;10.30;99.90;;;;;;5094573;28;20079;-79
2023/10/31 05:59:32;;;;;;;2.90;0.80;;;10.30;99.90;;;;;;5087501;28;20039;-78
2023/10/31 06:01:58;;;;;;;3.22;0.70;;;10.30;99.90;;;;;;5094405;28;20032;-78
2023/10/31 06:04:24;;;;;;;1.23;0.70;;;10.20;99.90;;;;;;5086957;28;20089;-78
2023/10/31 06:06:50;;;;;;;3.33;0.80;;;10.30;99.90;;;;;;5093744;28;20089;-78
2023/10/31 06:09:16;;;;;;;4.75;1.00;;;10.30;99.90;;;;;;5092693;28;20548;-79
2023/10/31 06:11:42;;;;;;;2.55;0.82;;;10.30;99.90;;;;;;5087402;28;20036;-78
2023/10/31 06:14:08;;;;;;;3.25;0.90;;;10.30;99.90;;;;;;5083098;28;20488;-78
2023/10/31 06:16:40;;;;;;;2.65;0.70;;;10.30;99.90;;;;;;5084136;28;20044;-79
2023/10/31 06:19:06;;;;;;;3.90;0.90;;;10.30;99.90;;;;;;5083513;28;20115;-78
2023/10/31 06:21:31;;;;;;;2.10;1.00;;;10.40;99.90;;;;;;5087978;28;20050;-78
2023/10/31 06:23:57;;;;;;;5.03;0.90;;;10.40;99.90;;;;;;5092896;28;20201;-78
2023/10/31 06:26:22;;;;;;;2.67;0.93;;;10.40;99.90;;;;;;5064685;28;20051;-79
2023/10/31 06:28:48;;;;;;;2.38;1.00;;;10.40;99.90;;;;;;5094480;28;20032;-79
2023/10/31 06:31:13;;;;;;;5.60;1.15;;;10.40;99.90;;;;;;5093117;28;20104;-78
2023/10/31 06:33:39;;;;;;;3.55;1.00;;;10.40;99.90;;;;;;5066269;28;20044;-78
2023/10/31 06:36:06;;;;;;;6.20;1.20;;;10.40;99.90;;;;;;5089983;28;20503;-78
2023/10/31 06:38:32;;;;;;;4.13;1.33;;;10.50;99.90;;;;;;5093266;28;20036;-79
2023/10/31 06:40:57;;;;;;;3.42;1.15;;;10.50;99.90;;;;;;5057639;28;20042;-78
2023/10/31 06:43:23;;;;;;;4.28;1.33;;;10.40;99.90;;;;;;5094533;28;20044;-79
2023/10/31 06:45:48;;;;;;;3.05;1.20;;;10.40;99.90;;;;;;5075883;28;20044;-79
2023/10/31 06:48:14;;;;;;;3.10;1.23;;;10.40;99.90;;;;;;5075195;28;20575;-79
2023/10/31 06:50:39;;;;;;;4.82;1.10;;;10.40;99.90;;;;;;5051461;28;20396;-79
2023/10/31 06:53:05;;;;;;;1.92;1.15;;;10.40;99.90;;;;;;5104174;28;20035;-79
2023/10/31 06:55:30;;;;;;;3.63;1.42;;;10.40;99.90;;;;;;5091633;28;20036;-79
2023/10/31 06:57:56;;;;;;;3.47;1.30;;;10.40;99.90;;;;;;5076268;28;20135;-79
2023/10/31 07:00:22;;;;;;;4.70;1.77;;;10.40;99.90;;;;;;5089193;28;20048;-79
2023/10/31 07:02:47;;;;;;;4.22;1.77;;;10.40;99.90;;;;;;5087511;28;20039;-79
2023/10/31 07:05:15;;;;;;;4.70;1.60;;;10.40;99.90;;;;;;5084010;28;20511;-79
2023/10/31 07:07:40;;;;;;;7.95;2.10;;;10.40;99.90;;;;;;5087381;28;20044;-79
2023/10/31 07:10:06;;;;;;;4.50;1.80;;;10.40;99.90;;;;;;5088483;28;20046;-79
2023/10/31 07:12:32;;;;;;;4.60;1.90;;;10.40;99.90;;;;;;5092331;28;20165;-79
2023/10/31 07:14:58;;;;;;;3.15;1.88;;;10.40;99.90;;;;;;5089864;28;20119;-79
2023/10/31 07:17:25;;;;;;;4.60;1.67;;;10.40;99.90;;;;;;5082510;28;20044;-79
2023/10/31 07:19:50;;;;;;;7.38;1.80;;;10.40;99.90;;;;;;5075532;28;20055;-80
2023/10/31 07:22:16;;;;;;;4.25;2.03;;;10.50;99.90;;;;;;5092148;28;20404;-80
2023/10/31 07:24:42;;;;;;;6.05;1.98;;;10.50;99.90;;;;;;5092035;28;20039;-80
2023/10/31 07:27:08;;;;;;;8.68;2.10;;;10.50;99.90;;;;;;5086686;28;20048;-80
2023/10/31 07:29:34;;;;;;;4.25;2.15;;;10.50;99.90;;;;;;5075329;28;20063;-80
2023/10/31 07:32:00;;;;;;;5.68;2.03;;;10.60;99.90;;;;;;5080400;28;20056;-80
2023/10/31 07:34:26;;;;;;;5.63;2.25;;;10.60;99.90;;;;;;5066323;28;20039;-80
2023/10/31 07:36:52;;;;;;;7.68;2.72;;;10.60;99.90;;;;;;5088571;28;20594;-80
2023/10/31 07:39:18;;;;;;;5.57;2.40;;;10.60;99.90;;;;;;5092163;28;20115;-80
2023/10/31 07:41:44;;;;;;;10.75;2.60;;;10.60;99.90;;;;;;5056979;28;20473;-80
2023/10/31 07:44:09;;;;;;;4.60;1.88;;;10.60;99.90;;;;;;5093725;28;20481;-81
2023/10/31 07:46:35;;;;;;;7.03;2.50;;;10.60;99.90;;;;;;5092411;28;20101;-80
2023/10/31 07:49:00;;;;;;;6.07;2.40;;;10.70;99.90;;;;;;5091498;28;20067;-81
2023/10/31 07:51:26;;;;;;;6.57;2.00;;;10.70;99.90;;;;;;5069201;28;20047;-81
2023/10/31 07:53:52;;;;;;;4.63;1.92;;;10.70;99.90;;;;;;5090679;28;20040;-81
2023/10/31 07:56:22;;;;;;;3.95;1.90;;;10.70;99.90;;;;;;5074747;28;20048;-81
2023/10/31 07:58:51;;;;;;;5.63;1.85;;;10.70;99.90;;;;;;5074561;28;20046;-81
2023/10/31 08:01:18;;;;;;;4.47;1.50;;;10.70;99.90;;;;;;5089616;28;20094;-80
2023/10/31 08:03:43;;;;;;;8.88;1.67;;;10.70;99.90;;;;;;5073090;28;20477;-80
2023/10/31 08:06:11;;;;;;;5.18;1.80;;;10.70;99.90;;;;;;5093104;28;20044;-81
2023/10/31 08:08:36;;;;;;;3.22;1.40;;;10.70;99.90;;;;;;5074127;28;20538;-81
2023/10/31 08:11:03;;;;;;;6.07;1.40;;;10.90;99.90;;;;;;5072376;28;20040;-80
2023/10/31 08:13:29;;;;;;;6.13;1.38;;;10.90;99.90;;;;;;5092119;28;20047;-80
2023/10/31 08:15:55;;;;;;;4.78;1.10;;;10.90;99.90;;;;;;5091605;28;20036;-80
2023/10/31 08:18:23;;;;;;;6.03;1.33;;;10.90;99.90;;;;;;5075311;28;20392;-80
2023/10/31 08:20:50;;;;;;;4.85;1.20;;;10.90;99.90;;;;;;5091813;28;20024;-80
2023/10/31 08:23:16;;;;;;;4.95;1.10;;;10.90;99.90;;;;;;5092079;28;20036;-80
2023/10/31 08:25:42;;;;;;;3.65;0.90;;;10.90;99.90;;;;;;5092724;28;20512;-80
2023/10/31 08:28:08;;;;;;;4.90;1.88;;;10.90;99.90;;;;;;5074545;28;20083;-80
2023/10/31 08:30:33;;;;;;;6.93;1.13;;;10.90;99.90;;;;;;5089725;28;20039;-80
2023/10/31 08:32:59;;;;;;;4.00;0.90;;;10.90;99.90;;;;;;5084859;28;20373;-80
2023/10/31 08:35:25;;;;;;;4.35;0.80;;;10.90;99.90;;;;;;5093356;28;20040;-79
2023/10/31 08:37:50;;;;;;;4.07;0.90;;;11.00;99.90;;;;;;5091174;28;20036;-79
2023/10/31 08:40:16;;;;;;;4.10;0.85;;;10.90;99.90;;;;;;5085852;28;20032;-80
2023/10/31 08:42:43;;;;;;;5.35;0.85;;;11.00;99.90;;;;;;5091043;28;20378;-79
2023/10/31 08:45:09;;;;;;;5.75;0.90;;;11.00;99.90;;;;;;5089471;28;20043;-80
2023/10/31 08:47:34;;;;;;;3.97;0.73;;;11.00;99.90;;;;;;5072450;28;20048;-80
2023/10/31 08:50:00;;;;;;;1.48;0.32;;;10.90;99.90;;;;;;5081639;28;20036;-80
2023/10/31 08:52:26;;;;;;;4.85;0.77;;;11.00;99.90;;;;;;5091054;28;20036;-80
2023/10/31 08:54:51;;;;;;;5.30;0.70;;;11.00;99.90;;;;;;5091397;28;20038;-80
2023/10/31 08:57:17;;;;;;;3.45;0.60;;;11.00;99.90;;;;;;5073337;28;20048;-80
2023/10/31 08:59:43;;;;;;;4.88;0.70;;;10.90;99.90;;;;;;5093137;28;20044;-80
2023/10/31 09:02:08;;;;;;;3.10;0.80;;;11.00;99.90;;;;;;5088133;28;20044;-80
2023/10/31 09:04:35;;;;;;;2.85;0.50;;;10.90;99.90;;;;;;5092400;28;20040;-80
2023/10/31 09:07:00;;;;;;;4.22;0.60;;;10.90;99.90;;;;;;5097351;28;20080;-81
2023/10/31 09:09:26;;;;;;;1.85;0.50;;;10.90;99.90;;;;;;5097896;28;20059;-81
2023/10/31 09:11:52;;;;;;;3.35;0.55;;;11.00;99.90;;;;;;5096199;28;20059;-81
2023/10/31 09:14:17;;;;;;;2.40;0.52;;;11.00;99.90;;;;;;5096014;28;20676;-81
2023/10/31 09:16:43;;;;;;;1.98;0.47;;;10.90;99.90;;;;;;5097105;28;20039;-81
2023/10/31 09:19:09;;;;;;;3.35;0.50;;;11.00;99.90;;;;;;5095903;28;20092;-81
2023/10/31 09:21:34;;;;;;;0.50;0.22;;;11.00;99.90;;;;;;5097076;28;20051;-81
2023/10/31 09:24:00;;;;;;;0.73;0.40;;;11.10;99.90;;;;;;5093944;28;20048;-81
2023/10/31 09:26:25;;;;;;;1.25;0.30;;;11.10;99.90;;;;;;5097032;28;20036;-81
2023/10/31 09:28:51;;;;;;;2.40;0.75;;;11.20;99.90;;;;;;5096458;28;20040;-81
2023/10/31 09:31:18;;;;;;;6.00;0.82;;;11.20;99.90;;;;;;5094703;28;20378;-80
2023/10/31 09:33:45;;;;;;;2.22;0.52;;;11.30;99.90;;;;;;5084365;28;20044;-82
2023/10/31 09:36:11;;;;;;;3.55;0.60;;;11.40;99.90;;;;;;5096569;28;20082;-81
2023/10/31 09:38:36;;;;;;;5.93;0.90;;;11.40;99.90;;;;;;5076651;28;20032;-80
2023/10/31 09:41:03;;;;;;;2.90;0.57;;;11.40;99.90;;;;;;5094806;28;20029;-81
2023/10/31 09:43:28;;;;;;;4.63;0.85;;;11.50;99.90;;;;;;5092216;28;20115;-81
2023/10/31 09:45:55;;;;;;;8.10;1.02;;;11.50;99.90;;;;;;5110584;28;20123;-80
2023/10/31 09:48:21;;;;;;;7.93;1.73;;;11.50;99.90;;;;;;5094591;28;20040;-80
2023/10/31 09:50:47;;;;;;;7.25;0.90;;;11.50;99.90;;;;;;5078304;28;20395;-80
2023/10/31 09:53:16;;;;;;;2.92;0.60;;;11.50;99.90;;;;;;5109436;28;20036;-80
2023/10/31 09:55:42;;;;;;;3.53;0.80;;;11.50;99.90;;;;;;5094386;28;20036;-80
2023/10/31 09:58:08;;;;;;;2.47;0.60;;;11.60;99.90;;;;;;5095040;28;20098;-80
2023/10/31 10:00:36;;;;;;;5.57;0.55;;;11.50;99.90;;;;;;5074283;28;20468;-80
2023/10/31 10:03:03;;;;;;;4.45;0.50;;;11.50;99.90;;;;;;5089305;28;20078;-80
2023/10/31 10:05:31;;;;;;;2.63;0.45;;;11.50;99.90;;;;;;5093947;28;20036;-80
2023/10/31 10:07:57;;;;;;;3.28;0.57;;;11.50;99.90;;;;;;5093514;28;20032;-80
2023/10/31 10:10:24;;;;;;;5.05;0.80;;;11.40;99.90;;;;;;5093183;28;20050;-80
2023/10/31 10:12:51;;;;;;;6.30;0.90;;;11.40;99.90;;;;;;5093287;28;20034;-80
2023/10/31 10:15:17;;;;;;;5.20;0.70;;;11.40;99.90;;;;;;5090754;28;20097;-80
2023/10/31 10:17:50;;;;;;;5.47;0.60;;;11.40;99.90;;;;;;5109942;28;20071;-80
2023/10/31 10:20:15;;;;;;;7.32;0.65;;;11.50;99.90;;;;;;5103475;28;20052;-79
2023/10/31 10:22:42;;;;;;;3.95;0.55;;;11.50;99.90;;;;;;5088600;28;20488;-79
2023/10/31 10:25:11;;;;;;;4.47;0.70;;;11.50;99.90;;;;;;5072539;28;20044;-79
2023/10/31 10:27:37;;;;;;;2.60;0.57;;;11.50;99.90;;;;;;5071995;28;20557;-80
2023/10/31 10:30:04;;;;;;;4.30;0.70;;;11.60;99.90;;;;;;5094078;28;20130;-79
2023/10/31 10:32:29;;;;;;;5.13;0.75;;;11.60;99.90;;;;;;5074947;28;20036;-79
2023/10/31 10:34:55;;;;;;;3.40;0.60;;;11.60;99.90;;;;;;5091533;28;20028;-79
2023/10/31 10:37:22;;;;;;;2.63;0.47;;;11.60;99.90;;;;;;5093847;28;20132;-79
2023/10/31 10:39:53;;;;;;;2.08;0.45;;;11.60;99.90;;;;;;5090599;28;20181;-80
2023/10/31 10:42:21;;;;;;;7.70;0.77;;;11.70;99.90;;;;;;5094128;28;20036;-79
2023/10/31 10:44:50;;;;;;;2.20;0.50;;;11.70;99.90;;;;;;5072742;28;20117;-79
2023/10/31 10:47:18;;;;;;;3.63;0.60;;;11.70;99.90;;;;;;5090050;28;20048;-79
2023/10/31 10:49:47;;;;;;;4.20;0.60;;;11.70;99.90;;;;;;5094212;28;20176;-79
2023/10/31 10:52:27;;;;;;;6.63;0.70;;;11.70;99.90;;;;;;5087508;28;20123;-80
2023/10/31 10:54:56;;;;;;;3.83;0.50;;;11.80;99.90;;;;;;5079770;28;20032;-79
2023/10/31 10:57:34;;;;;;;5.70;0.50;;;11.80;99.90;;;;;;5055143;28;1053421;-79
2023/10/31 11:00:03;;;;;;;5.15;0.75;;;11.80;99.90;;;;;;5082390;28;20055;-79
2023/10/31 11:02:30;;;;;;;2.72;0.50;;;11.80;99.90;;;;;;5073494;28;20131;-79
2023/10/31 11:04:56;;;;;;;3.15;0.70;;;11.80;99.90;;;;;;5092588;28;20032;-79
2023/10/31 11:07:23;;;;;;;4.43;1.65;;;11.80;99.90;;;;;;5093803;28;20090;-79
2023/10/31 11:09:49;;;;;;;4.75;0.70;;;11.80;99.90;;;;;;5064619;28;20036;-79
2023/10/31 11:12:16;;;;;;;3.15;0.90;;;11.80;99.90;;;;;;5092787;28;20040;-79
2023/10/31 11:14:42;;;;;;;4.05;0.60;;;11.80;99.90;;;;;;5075082;28;20059;-79
2023/10/31 11:17:29;;;;;;;2.53;0.52;;;11.80;99.90;;;;;;5091841;28;20504;-79
2023/10/31 11:19:56;;;;;;;4.75;0.60;;;11.90;99.90;;;;;;5075015;28;20040;-79
2023/10/31 11:22:22;;;;;;;5.63;0.57;;;11.80;99.90;;;;;;5083707;28;20051;-79
2023/10/31 11:24:51;;;;;;;3.00;0.68;;;11.70;99.90;;;;;;5093415;28;20048;-79
2023/10/31 11:27:17;;;;;;;2.85;0.70;;;11.70;99.90;;;;;;5091765;28;20047;-79
2023/10/31 11:29:43;;;;;;;2.15;0.55;;;11.70;99.90;;;;;;5093402;28;20078;-78
2023/10/31 11:32:10;;;;;;;3.22;0.65;;;11.70;99.90;;;;;;5093724;28;20067;-79
2023/10/31 11:34:41;;;;;;;3.70;0.65;;;11.70;99.90;;;;;;5093930;28;20043;-78
2023/10/31 11:37:26;;;;;;;4.35;0.82;;;11.70;99.90;;;;;;5092203;28;20036;-79
2023/10/31 11:40:14;;;;;;;3.25;0.77;;;11.70;99.90;;;;;;5094174;28;20089;-78
2023/10/31 11:42:47;;;;;;;4.35;0.80;;;11.80;99.90;;;;;;5092312;28;20062;-79
2023/10/31 11:45:13;;;;;;;5.03;0.70;;;11.80;99.90;;;;;;5093580;28;20032;-79
2023/10/31 11:47:48;;;;;;;4.47;0.70;;;11.80;99.90;;;;;;5090885;28;20035;-79
2023/10/31 11:50:14;;;;;;;5.90;0.60;;;11.70;99.90;;;;;;5091849;28;20089;-79
2023/10/31 11:52:40;;;;;;;6.28;0.95;;;11.80;99.90;;;;;;5059174;28;20040;-83
2023/10/31 11:55:10;;;;;;;3.70;0.68;;;11.80;99.90;;;;;;5087242;28;20119;-81
2023/10/31 11:57:36;;;;;;;3.05;0.80;;;11.80;99.90;;;;;;5085978;28;20059;-81
2023/10/31 12:00:03;;;;;;;4.88;0.82;;;11.80;99.90;;;;;;5076146;28;20054;-80
2023/10/31 12:02:29;;;;;;;5.03;0.70;;;11.80;99.90;;;;;;5075989;28;20365;-80
2023/10/31 12:05:12;;;;;;;4.85;0.68;;;11.80;99.90;;;;;;5091970;28;20036;-79
2023/10/31 12:07:47;;;;;;;2.90;0.50;;;11.80;99.90;;;;;;5088689;28;20043;-83
2023/10/31 12:10:22;;;;;;;4.18;0.60;;;11.80;99.90;;;;;;5072356;28;20106;-81
2023/10/31 12:12:47;;;;;;;4.72;0.65;;;11.80;99.90;;;;;;5072826;28;20032;-81
2023/10/31 12:15:13;;;;;;;4.53;0.77;;;11.80;99.90;;;;;;5068529;28;20039;-81
2023/10/31 12:17:38;;;;;;;6.82;0.90;;;11.80;99.90;;;;;;5082181;28;20048;-80
2023/10/31 12:20:08;;;;;;;4.38;0.75;;;11.70;99.90;;;;;;5083572;28;20046;-80
2023/10/31 12:22:37;;;;;;;4.47;1.52;;;11.70;99.90;;;;;;5074748;28;20040;-81
2023/10/31 12:25:04;;;;;;;3.88;0.65;;;11.80;99.90;;;;;;5091236;28;20434;-80
2023/10/31 12:27:49;;;;;;;4.60;0.85;;;11.70;99.90;;;;;;5088064;28;20135;-80
2023/10/31 12:30:17;;;;;;;2.95;0.60;;;11.70;99.90;;;;;;5081553;28;20036;-81
2023/10/31 12:32:44;;;;;;;1.80;0.50;;;11.70;99.90;;;;;;5090003;28;20531;-80
2023/10/31 12:35:16;;;;;;;4.93;0.90;;;11.70;99.90;;;;;;5058398;28;20472;-81
2023/10/31 12:37:47;;;;;;;9.02;0.90;;;11.70;99.90;;;;;;5074800;28;20040;-81
2023/10/31 12:40:20;;;;;;;3.17;0.65;;;11.70;99.90;;;;;;5088439;28;20046;-81
2023/10/31 12:42:48;;;;;;;4.15;0.65;;;11.70;99.90;;;;;;5093292;28;20040;-81